sensor_id;sensor_type;location;lat;lon;timestamp;P1;durP1;ratioP1;P2;durP2;ratioP2
15317;SDS011;7759;52.528;13.346;2023-03-03T00:00:22;14.07;;;6.77;;
15317;SDS011;7759;52.528;13.346;2023-03-03T00:02:48;12.63;;;6.50;;
15317;SDS011;7759;52.528;13.346;2023-03-03T00:05:14;13.47;;;6.83;;
15317;SDS011;7759;52.528;13.346;2023-03-03T00:07:43;16.90;;;8.00;;
15317;SDS011;7759;52.528;13.346;2023-03-03T00:10:09;13.53;;;7.07;;
15317;SDS011;7759;52.528;13.346;2023-03-03T00:12:35;13.87;;;7.00;;
15317;SDS011;7759;52.528;13.346;2023-03-03T00:15:15;13.57;;;6.33;;
15317;SDS011;7759;52.528;13.346;2023-03-03T00:17:41;12.03;;;5.80;;
15317;SDS011;7759;52.528;13.346;2023-03-03T00:20:26;13.63;;;6.13;;
15317;SDS011;7759;52.528;13.346;2023-03-03T00:22:52;11.13;;;5.37;;
15317;SDS011;7759;52.528;13.346;2023-03-03T00:27:43;12.70;;;6.17;;
15317;SDS011;7759;52.528;13.346;2023-03-03T00:30:16;14.57;;;7.57;;
15317;SDS011;7759;52.528;13.346;2023-03-03T00:32:44;15.13;;;7.20;;
15317;SDS011;7759;52.528;13.346;2023-03-03T00:35:27;15.20;;;7.50;;
15317;SDS011;7759;52.528;13.346;2023-03-03T00:38:18;17.67;;;7.57;;
15317;SDS011;7759;52.528;13.346;2023-03-03T00:40:44;18.33;;;8.03;;
15317;SDS011;7759;52.528;13.346;2023-03-03T00:43:17;14.30;;;7.00;;
15317;SDS011;7759;52.528;13.346;2023-03-03T00:45:48;13.07;;;5.77;;
15317;SDS011;7759;52.528;13.346;2023-03-03T00:48:21;16.10;;;6.73;;
15317;SDS011;7759;52.528;13.346;2023-03-03T00:50:48;14.73;;;6.73;;
15317;SDS011;7759;52.528;13.346;2023-03-03T00:53:15;11.93;;;5.90;;
15317;SDS011;7759;52.528;13.346;2023-03-03T00:55:41;17.37;;;8.83;;
15317;SDS011;7759;52.528;13.346;2023-03-03T00:58:08;13.80;;;6.30;;
15317;SDS011;7759;52.528;13.346;2023-03-03T01:00:34;14.50;;;6.73;;
15317;SDS011;7759;52.528;13.346;2023-03-03T01:03:01;13.20;;;6.67;;
15317;SDS011;7759;52.528;13.346;2023-03-03T01:05:28;12.53;;;5.03;;
15317;SDS011;7759;52.528;13.346;2023-03-03T01:07:54;12.93;;;6.70;;
15317;SDS011;7759;52.528;13.346;2023-03-03T01:10:20;12.67;;;6.20;;
15317;SDS011;7759;52.528;13.346;2023-03-03T01:12:46;12.50;;;6.17;;
15317;SDS011;7759;52.528;13.346;2023-03-03T01:15:12;11.70;;;5.17;;
15317;SDS011;7759;52.528;13.346;2023-03-03T01:17:38;13.63;;;6.27;;
15317;SDS011;7759;52.528;13.346;2023-03-03T01:20:05;14.37;;;7.47;;
15317;SDS011;7759;52.528;13.346;2023-03-03T01:22:31;16.83;;;7.50;;
15317;SDS011;7759;52.528;13.346;2023-03-03T01:24:57;16.30;;;7.77;;
15317;SDS011;7759;52.528;13.346;2023-03-03T01:27:23;15.43;;;7.23;;
15317;SDS011;7759;52.528;13.346;2023-03-03T01:29:49;12.47;;;6.70;;
15317;SDS011;7759;52.528;13.346;2023-03-03T01:32:15;14.40;;;6.47;;
15317;SDS011;7759;52.528;13.346;2023-03-03T01:34:41;12.73;;;5.17;;
15317;SDS011;7759;52.528;13.346;2023-03-03T01:37:07;13.27;;;5.87;;
15317;SDS011;7759;52.528;13.346;2023-03-03T01:39:33;11.17;;;5.60;;
15317;SDS011;7759;52.528;13.346;2023-03-03T01:41:59;10.30;;;5.67;;
15317;SDS011;7759;52.528;13.346;2023-03-03T01:44:26;13.03;;;6.57;;
15317;SDS011;7759;52.528;13.346;2023-03-03T01:49:43;11.67;;;5.70;;
15317;SDS011;7759;52.528;13.346;2023-03-03T01:52:12;10.33;;;5.50;;
15317;SDS011;7759;52.528;13.346;2023-03-03T01:54:40;12.87;;;6.40;;
15317;SDS011;7759;52.528;13.346;2023-03-03T01:57:10;11.00;;;5.67;;
15317;SDS011;7759;52.528;13.346;2023-03-03T01:59:39;10.70;;;5.20;;
15317;SDS011;7759;52.528;13.346;2023-03-03T02:02:07;12.80;;;6.33;;
15317;SDS011;7759;52.528;13.346;2023-03-03T02:04:34;20.63;;;7.97;;
15317;SDS011;7759;52.528;13.346;2023-03-03T02:07:02;13.67;;;6.30;;
15317;SDS011;7759;52.528;13.346;2023-03-03T02:09:33;14.13;;;6.83;;
15317;SDS011;7759;52.528;13.346;2023-03-03T02:12:04;11.57;;;6.00;;
15317;SDS011;7759;52.528;13.346;2023-03-03T02:14:32;15.97;;;7.27;;
15317;SDS011;7759;52.528;13.346;2023-03-03T02:16:58;15.33;;;6.73;;
15317;SDS011;7759;52.528;13.346;2023-03-03T02:19:46;17.07;;;8.20;;
15317;SDS011;7759;52.528;13.346;2023-03-03T02:22:16;11.83;;;5.87;;
15317;SDS011;7759;52.528;13.346;2023-03-03T02:24:49;11.87;;;5.97;;
15317;SDS011;7759;52.528;13.346;2023-03-03T02:27:16;12.27;;;6.03;;
15317;SDS011;7759;52.528;13.346;2023-03-03T02:29:42;14.10;;;5.80;;
15317;SDS011;7759;52.528;13.346;2023-03-03T02:32:08;16.83;;;7.60;;
15317;SDS011;7759;52.528;13.346;2023-03-03T02:34:44;14.47;;;7.07;;
15317;SDS011;7759;52.528;13.346;2023-03-03T02:37:10;13.57;;;6.63;;
15317;SDS011;7759;52.528;13.346;2023-03-03T02:39:36;14.77;;;6.47;;
15317;SDS011;7759;52.528;13.346;2023-03-03T02:42:06;11.23;;;5.83;;
15317;SDS011;7759;52.528;13.346;2023-03-03T02:44:33;13.33;;;6.77;;
15317;SDS011;7759;52.528;13.346;2023-03-03T02:46:59;14.93;;;7.57;;
15317;SDS011;7759;52.528;13.346;2023-03-03T02:49:31;12.00;;;5.83;;
15317;SDS011;7759;52.528;13.346;2023-03-03T02:51:57;11.40;;;5.73;;
15317;SDS011;7759;52.528;13.346;2023-03-03T02:54:24;14.03;;;6.60;;
15317;SDS011;7759;52.528;13.346;2023-03-03T02:56:50;14.43;;;6.43;;
15317;SDS011;7759;52.528;13.346;2023-03-03T02:59:16;11.67;;;6.03;;
15317;SDS011;7759;52.528;13.346;2023-03-03T03:01:42;12.70;;;6.50;;
15317;SDS011;7759;52.528;13.346;2023-03-03T03:04:09;13.03;;;6.50;;
15317;SDS011;7759;52.528;13.346;2023-03-03T03:06:36;14.80;;;6.07;;
15317;SDS011;7759;52.528;13.346;2023-03-03T03:09:02;10.83;;;5.50;;
15317;SDS011;7759;52.528;13.346;2023-03-03T03:11:28;11.77;;;6.23;;
15317;SDS011;7759;52.528;13.346;2023-03-03T03:13:54;13.03;;;5.73;;
15317;SDS011;7759;52.528;13.346;2023-03-03T03:16:20;14.40;;;7.07;;
15317;SDS011;7759;52.528;13.346;2023-03-03T03:18:46;14.40;;;6.50;;
15317;SDS011;7759;52.528;13.346;2023-03-03T03:21:14;13.43;;;6.30;;
15317;SDS011;7759;52.528;13.346;2023-03-03T03:23:40;14.50;;;7.07;;
15317;SDS011;7759;52.528;13.346;2023-03-03T03:26:06;16.53;;;6.50;;
15317;SDS011;7759;52.528;13.346;2023-03-03T03:28:32;13.20;;;6.97;;
15317;SDS011;7759;52.528;13.346;2023-03-03T03:30:58;11.17;;;5.53;;
15317;SDS011;7759;52.528;13.346;2023-03-03T03:33:24;12.10;;;6.33;;
15317;SDS011;7759;52.528;13.346;2023-03-03T03:35:52;10.87;;;5.13;;
15317;SDS011;7759;52.528;13.346;2023-03-03T03:38:19;11.87;;;5.77;;
15317;SDS011;7759;52.528;13.346;2023-03-03T03:40:45;15.80;;;7.17;;
15317;SDS011;7759;52.528;13.346;2023-03-03T03:43:11;15.80;;;7.00;;
15317;SDS011;7759;52.528;13.346;2023-03-03T03:45:37;12.13;;;6.07;;
15317;SDS011;7759;52.528;13.346;2023-03-03T03:48:03;15.50;;;6.87;;
15317;SDS011;7759;52.528;13.346;2023-03-03T03:50:29;13.87;;;6.40;;
15317;SDS011;7759;52.528;13.346;2023-03-03T03:52:56;15.60;;;7.07;;
15317;SDS011;7759;52.528;13.346;2023-03-03T03:55:21;11.90;;;5.60;;
15317;SDS011;7759;52.528;13.346;2023-03-03T03:57:47;19.33;;;7.97;;
15317;SDS011;7759;52.528;13.346;2023-03-03T04:00:13;14.03;;;6.47;;
15317;SDS011;7759;52.528;13.346;2023-03-03T04:02:39;17.60;;;7.77;;
15317;SDS011;7759;52.528;13.346;2023-03-03T04:05:05;14.17;;;6.53;;
15317;SDS011;7759;52.528;13.346;2023-03-03T04:07:31;12.67;;;5.77;;
15317;SDS011;7759;52.528;13.346;2023-03-03T04:09:57;11.97;;;5.77;;
15317;SDS011;7759;52.528;13.346;2023-03-03T04:12:23;14.60;;;6.40;;
15317;SDS011;7759;52.528;13.346;2023-03-03T04:14:49;13.63;;;6.27;;
15317;SDS011;7759;52.528;13.346;2023-03-03T04:17:19;10.43;;;5.73;;
15317;SDS011;7759;52.528;13.346;2023-03-03T04:19:45;12.97;;;6.70;;
15317;SDS011;7759;52.528;13.346;2023-03-03T04:22:11;14.43;;;6.13;;
15317;SDS011;7759;52.528;13.346;2023-03-03T04:24:38;11.20;;;4.90;;
15317;SDS011;7759;52.528;13.346;2023-03-03T04:27:04;13.80;;;5.33;;
15317;SDS011;7759;52.528;13.346;2023-03-03T04:29:30;9.23;;;4.30;;
15317;SDS011;7759;52.528;13.346;2023-03-03T04:31:56;14.00;;;5.87;;
15317;SDS011;7759;52.528;13.346;2023-03-03T04:34:22;13.57;;;5.20;;
15317;SDS011;7759;52.528;13.346;2023-03-03T04:36:48;10.90;;;5.83;;
15317;SDS011;7759;52.528;13.346;2023-03-03T04:39:14;13.40;;;6.30;;
15317;SDS011;7759;52.528;13.346;2023-03-03T04:41:40;11.37;;;5.83;;
15317;SDS011;7759;52.528;13.346;2023-03-03T04:44:06;11.13;;;5.53;;
15317;SDS011;7759;52.528;13.346;2023-03-03T04:46:32;18.70;;;6.47;;
15317;SDS011;7759;52.528;13.346;2023-03-03T04:48:57;14.43;;;5.97;;
15317;SDS011;7759;52.528;13.346;2023-03-03T04:51:23;14.20;;;6.63;;
15317;SDS011;7759;52.528;13.346;2023-03-03T04:53:49;17.40;;;6.90;;
15317;SDS011;7759;52.528;13.346;2023-03-03T04:56:15;12.60;;;5.60;;
15317;SDS011;7759;52.528;13.346;2023-03-03T04:58:41;15.20;;;6.23;;
15317;SDS011;7759;52.528;13.346;2023-03-03T05:01:09;13.73;;;5.67;;
15317;SDS011;7759;52.528;13.346;2023-03-03T05:03:37;14.17;;;6.37;;
15317;SDS011;7759;52.528;13.346;2023-03-03T05:06:03;13.03;;;6.33;;
15317;SDS011;7759;52.528;13.346;2023-03-03T05:08:29;14.67;;;6.57;;
15317;SDS011;7759;52.528;13.346;2023-03-03T05:10:55;13.33;;;6.67;;
15317;SDS011;7759;52.528;13.346;2023-03-03T05:13:21;14.50;;;7.10;;
15317;SDS011;7759;52.528;13.346;2023-03-03T05:15:50;14.90;;;6.80;;
15317;SDS011;7759;52.528;13.346;2023-03-03T05:18:17;20.10;;;8.33;;
15317;SDS011;7759;52.528;13.346;2023-03-03T05:20:44;13.10;;;6.13;;
15317;SDS011;7759;52.528;13.346;2023-03-03T05:23:10;18.63;;;8.00;;
15317;SDS011;7759;52.528;13.346;2023-03-03T05:25:35;13.87;;;6.70;;
15317;SDS011;7759;52.528;13.346;2023-03-03T05:28:02;17.10;;;7.57;;
15317;SDS011;7759;52.528;13.346;2023-03-03T05:30:28;16.30;;;6.97;;
15317;SDS011;7759;52.528;13.346;2023-03-03T05:32:54;23.40;;;8.67;;
15317;SDS011;7759;52.528;13.346;2023-03-03T05:35:20;23.33;;;8.90;;
15317;SDS011;7759;52.528;13.346;2023-03-03T05:37:47;18.73;;;8.00;;
15317;SDS011;7759;52.528;13.346;2023-03-03T05:40:13;27.20;;;14.17;;
15317;SDS011;7759;52.528;13.346;2023-03-03T05:42:39;17.70;;;7.73;;
15317;SDS011;7759;52.528;13.346;2023-03-03T05:45:05;20.90;;;8.57;;
15317;SDS011;7759;52.528;13.346;2023-03-03T05:47:31;16.87;;;6.17;;
15317;SDS011;7759;52.528;13.346;2023-03-03T05:49:57;19.23;;;6.83;;
15317;SDS011;7759;52.528;13.346;2023-03-03T05:52:24;22.17;;;7.80;;
15317;SDS011;7759;52.528;13.346;2023-03-03T05:54:50;16.47;;;6.57;;
15317;SDS011;7759;52.528;13.346;2023-03-03T05:57:16;14.70;;;7.20;;
15317;SDS011;7759;52.528;13.346;2023-03-03T05:59:42;20.27;;;7.17;;
15317;SDS011;7759;52.528;13.346;2023-03-03T06:02:08;13.33;;;6.33;;
15317;SDS011;7759;52.528;13.346;2023-03-03T06:04:34;9.97;;;4.93;;
15317;SDS011;7759;52.528;13.346;2023-03-03T06:07:00;12.17;;;6.00;;
15317;SDS011;7759;52.528;13.346;2023-03-03T06:09:26;11.40;;;5.60;;
15317;SDS011;7759;52.528;13.346;2023-03-03T06:11:52;11.60;;;6.07;;
15317;SDS011;7759;52.528;13.346;2023-03-03T06:14:18;13.67;;;6.50;;
15317;SDS011;7759;52.528;13.346;2023-03-03T06:16:45;13.97;;;5.87;;
15317;SDS011;7759;52.528;13.346;2023-03-03T06:19:11;14.80;;;7.03;;
15317;SDS011;7759;52.528;13.346;2023-03-03T06:21:37;10.57;;;4.73;;
15317;SDS011;7759;52.528;13.346;2023-03-03T06:24:03;12.10;;;5.03;;
15317;SDS011;7759;52.528;13.346;2023-03-03T06:26:30;11.43;;;5.23;;
15317;SDS011;7759;52.528;13.346;2023-03-03T06:28:56;10.17;;;4.27;;
15317;SDS011;7759;52.528;13.346;2023-03-03T06:31:22;12.57;;;5.93;;
15317;SDS011;7759;52.528;13.346;2023-03-03T06:33:48;10.97;;;4.50;;
15317;SDS011;7759;52.528;13.346;2023-03-03T06:36:15;10.73;;;4.57;;
15317;SDS011;7759;52.528;13.346;2023-03-03T06:38:41;11.60;;;4.93;;
15317;SDS011;7759;52.528;13.346;2023-03-03T06:41:07;9.43;;;3.77;;
15317;SDS011;7759;52.528;13.346;2023-03-03T06:43:33;12.23;;;4.63;;
15317;SDS011;7759;52.528;13.346;2023-03-03T06:45:59;11.30;;;4.70;;
15317;SDS011;7759;52.528;13.346;2023-03-03T06:48:25;12.90;;;5.33;;
15317;SDS011;7759;52.528;13.346;2023-03-03T06:50:51;13.03;;;5.33;;
15317;SDS011;7759;52.528;13.346;2023-03-03T06:53:17;10.83;;;5.43;;
15317;SDS011;7759;52.528;13.346;2023-03-03T06:55:43;12.67;;;5.80;;
15317;SDS011;7759;52.528;13.346;2023-03-03T06:58:11;16.73;;;6.77;;
15317;SDS011;7759;52.528;13.346;2023-03-03T07:00:37;11.93;;;6.33;;
15317;SDS011;7759;52.528;13.346;2023-03-03T07:03:15;14.27;;;6.23;;
15317;SDS011;7759;52.528;13.346;2023-03-03T07:05:42;14.97;;;6.87;;
15317;SDS011;7759;52.528;13.346;2023-03-03T07:08:12;15.47;;;6.23;;
15317;SDS011;7759;52.528;13.346;2023-03-03T07:10:39;16.07;;;6.50;;
15317;SDS011;7759;52.528;13.346;2023-03-03T07:13:15;16.73;;;6.27;;
15317;SDS011;7759;52.528;13.346;2023-03-03T07:15:42;16.83;;;6.87;;
15317;SDS011;7759;52.528;13.346;2023-03-03T07:18:54;12.90;;;6.17;;
15317;SDS011;7759;52.528;13.346;2023-03-03T07:20:56;10.77;;;4.37;;
15317;SDS011;7759;52.528;13.346;2023-03-03T07:25:51;17.10;;;6.20;;
15317;SDS011;7759;52.528;13.346;2023-03-03T07:30:49;13.03;;;5.33;;
15317;SDS011;7759;52.528;13.346;2023-03-03T07:33:18;15.10;;;6.27;;
15317;SDS011;7759;52.528;13.346;2023-03-03T07:35:44;12.13;;;6.03;;
15317;SDS011;7759;52.528;13.346;2023-03-03T07:38:22;14.80;;;6.63;;
15317;SDS011;7759;52.528;13.346;2023-03-03T07:40:53;19.83;;;6.93;;
15317;SDS011;7759;52.528;13.346;2023-03-03T07:43:39;19.23;;;6.17;;
15317;SDS011;7759;52.528;13.346;2023-03-03T07:48:35;14.77;;;5.97;;
15317;SDS011;7759;52.528;13.346;2023-03-03T07:51:04;12.37;;;5.40;;
15317;SDS011;7759;52.528;13.346;2023-03-03T07:53:31;17.60;;;6.73;;
15317;SDS011;7759;52.528;13.346;2023-03-03T07:56:02;15.97;;;6.40;;
15317;SDS011;7759;52.528;13.346;2023-03-03T07:58:38;17.47;;;6.53;;
15317;SDS011;7759;52.528;13.346;2023-03-03T08:03:49;15.90;;;5.93;;
15317;SDS011;7759;52.528;13.346;2023-03-03T08:11:52;8.80;;;4.57;;
15317;SDS011;7759;52.528;13.346;2023-03-03T08:14:24;16.50;;;7.27;;
15317;SDS011;7759;52.528;13.346;2023-03-03T08:16:50;21.80;;;7.03;;
15317;SDS011;7759;52.528;13.346;2023-03-03T08:19:16;15.93;;;6.47;;
15317;SDS011;7759;52.528;13.346;2023-03-03T08:21:42;19.03;;;7.73;;
15317;SDS011;7759;52.528;13.346;2023-03-03T08:24:08;24.23;;;8.37;;
15317;SDS011;7759;52.528;13.346;2023-03-03T08:26:35;14.77;;;6.17;;
15317;SDS011;7759;52.528;13.346;2023-03-03T08:29:01;15.50;;;6.03;;
15317;SDS011;7759;52.528;13.346;2023-03-03T08:31:27;18.10;;;7.17;;
15317;SDS011;7759;52.528;13.346;2023-03-03T08:33:53;16.77;;;7.03;;
15317;SDS011;7759;52.528;13.346;2023-03-03T08:36:19;16.00;;;6.53;;
15317;SDS011;7759;52.528;13.346;2023-03-03T08:38:45;12.27;;;5.13;;
15317;SDS011;7759;52.528;13.346;2023-03-03T08:41:11;20.27;;;7.10;;
15317;SDS011;7759;52.528;13.346;2023-03-03T08:43:37;16.90;;;7.17;;
15317;SDS011;7759;52.528;13.346;2023-03-03T08:46:04;18.60;;;8.07;;
15317;SDS011;7759;52.528;13.346;2023-03-03T08:48:30;11.30;;;5.53;;
15317;SDS011;7759;52.528;13.346;2023-03-03T08:50:57;16.13;;;5.97;;
15317;SDS011;7759;52.528;13.346;2023-03-03T08:53:23;16.27;;;6.00;;
15317;SDS011;7759;52.528;13.346;2023-03-03T08:55:49;15.57;;;6.60;;
15317;SDS011;7759;52.528;13.346;2023-03-03T08:58:16;13.23;;;6.13;;
15317;SDS011;7759;52.528;13.346;2023-03-03T09:00:42;20.60;;;7.57;;
15317;SDS011;7759;52.528;13.346;2023-03-03T09:03:08;15.30;;;7.13;;
15317;SDS011;7759;52.528;13.346;2023-03-03T09:05:34;12.97;;;6.07;;
15317;SDS011;7759;52.528;13.346;2023-03-03T09:08:01;16.90;;;6.53;;
15317;SDS011;7759;52.528;13.346;2023-03-03T09:10:27;20.37;;;8.60;;
15317;SDS011;7759;52.528;13.346;2023-03-03T09:12:55;23.83;;;8.60;;
15317;SDS011;7759;52.528;13.346;2023-03-03T09:15:32;26.87;;;9.90;;
15317;SDS011;7759;52.528;13.346;2023-03-03T09:17:59;24.10;;;9.83;;
15317;SDS011;7759;52.528;13.346;2023-03-03T09:20:35;27.23;;;10.57;;
15317;SDS011;7759;52.528;13.346;2023-03-03T09:25:46;24.05;;;11.07;;
15317;SDS011;7759;52.528;13.346;2023-03-03T09:28:21;13.87;;;6.93;;
15317;SDS011;7759;52.528;13.346;2023-03-03T09:30:48;19.23;;;8.90;;
15317;SDS011;7759;52.528;13.346;2023-03-03T09:36:10;21.40;;;10.10;;
15317;SDS011;7759;52.528;13.346;2023-03-03T09:38:39;19.37;;;9.43;;
15317;SDS011;7759;52.528;13.346;2023-03-03T09:41:15;22.23;;;9.50;;
15317;SDS011;7759;52.528;13.346;2023-03-03T09:49:17;17.67;;;8.17;;
15317;SDS011;7759;52.528;13.346;2023-03-03T09:54:21;19.83;;;8.03;;
15317;SDS011;7759;52.528;13.346;2023-03-03T10:02:23;12.73;;;5.57;;
15317;SDS011;7759;52.528;13.346;2023-03-03T10:05:00;21.13;;;10.00;;
15317;SDS011;7759;52.528;13.346;2023-03-03T10:20:04;21.23;;;9.70;;
15317;SDS011;7759;52.528;13.346;2023-03-03T10:22:38;18.83;;;8.43;;
15317;SDS011;7759;52.528;13.346;2023-03-03T10:25:11;14.93;;;7.67;;
15317;SDS011;7759;52.528;13.346;2023-03-03T10:27:45;23.63;;;8.30;;
15317;SDS011;7759;52.528;13.346;2023-03-03T10:30:20;14.87;;;7.17;;
15317;SDS011;7759;52.528;13.346;2023-03-03T10:32:57;13.60;;;6.87;;
15317;SDS011;7759;52.528;13.346;2023-03-03T10:38:03;21.00;;;8.67;;
15317;SDS011;7759;52.528;13.346;2023-03-03T10:40:37;22.67;;;10.07;;
15317;SDS011;7759;52.528;13.346;2023-03-03T10:43:08;21.57;;;9.00;;
15317;SDS011;7759;52.528;13.346;2023-03-03T10:45:44;21.60;;;9.57;;
15317;SDS011;7759;52.528;13.346;2023-03-03T10:48:28;17.43;;;7.77;;
15317;SDS011;7759;52.528;13.346;2023-03-03T10:51:01;20.37;;;8.67;;
15317;SDS011;7759;52.528;13.346;2023-03-03T10:53:33;11.97;;;6.00;;
15317;SDS011;7759;52.528;13.346;2023-03-03T10:56:09;16.63;;;7.27;;
15317;SDS011;7759;52.528;13.346;2023-03-03T10:58:42;18.67;;;7.73;;
15317;SDS011;7759;52.528;13.346;2023-03-03T11:01:16;21.20;;;7.93;;
15317;SDS011;7759;52.528;13.346;2023-03-03T11:03:55;13.70;;;6.53;;
15317;SDS011;7759;52.528;13.346;2023-03-03T11:06:36;19.53;;;7.13;;
15317;SDS011;7759;52.528;13.346;2023-03-03T11:11:39;15.33;;;6.73;;
15317;SDS011;7759;52.528;13.346;2023-03-03T11:16:41;14.10;;;6.13;;
15317;SDS011;7759;52.528;13.346;2023-03-03T11:21:49;12.90;;;6.23;;
15317;SDS011;7759;52.528;13.346;2023-03-03T11:29:48;19.97;;;9.47;;
15317;SDS011;7759;52.528;13.346;2023-03-03T11:32:25;24.50;;;10.17;;
15317;SDS011;7759;52.528;13.346;2023-03-03T11:37:35;17.67;;;7.00;;
15317;SDS011;7759;52.528;13.346;2023-03-03T11:40:11;26.63;;;7.17;;
15317;SDS011;7759;52.528;13.346;2023-03-03T11:48:11;16.50;;;7.00;;
15317;SDS011;7759;52.528;13.346;2023-03-03T11:50:49;14.20;;;5.73;;
15317;SDS011;7759;52.528;13.346;2023-03-03T11:56:20;25.37;;;10.53;;
15317;SDS011;7759;52.528;13.346;2023-03-03T11:58:50;19.67;;;7.97;;
15317;SDS011;7759;52.528;13.346;2023-03-03T12:01:21;25.13;;;11.33;;
15317;SDS011;7759;52.528;13.346;2023-03-03T12:03:48;11.73;;;5.43;;
15317;SDS011;7759;52.528;13.346;2023-03-03T12:11:54;16.20;;;7.00;;
15317;SDS011;7759;52.528;13.346;2023-03-03T12:15:26;14.67;;;6.77;;
15317;SDS011;7759;52.528;13.346;2023-03-03T12:17:38;12.37;;;6.10;;
15317;SDS011;7759;52.528;13.346;2023-03-03T12:20:21;16.77;;;8.93;;
15317;SDS011;7759;52.528;13.346;2023-03-03T12:22:57;15.67;;;8.33;;
15317;SDS011;7759;52.528;13.346;2023-03-03T12:25:39;23.77;;;11.20;;
15317;SDS011;7759;52.528;13.346;2023-03-03T12:30:57;28.13;;;12.17;;
15317;SDS011;7759;52.528;13.346;2023-03-03T12:33:28;26.27;;;12.57;;
15317;SDS011;7759;52.528;13.346;2023-03-03T12:36:15;23.73;;;11.33;;
15317;SDS011;7759;52.528;13.346;2023-03-03T12:38:54;17.03;;;8.17;;
15317;SDS011;7759;52.528;13.346;2023-03-03T12:41:21;26.83;;;11.20;;
15317;SDS011;7759;52.528;13.346;2023-03-03T12:43:56;21.77;;;9.60;;
15317;SDS011;7759;52.528;13.346;2023-03-03T12:46:31;21.20;;;9.63;;
15317;SDS011;7759;52.528;13.346;2023-03-03T12:48:57;23.80;;;9.47;;
15317;SDS011;7759;52.528;13.346;2023-03-03T12:51:36;24.17;;;11.20;;
15317;SDS011;7759;52.528;13.346;2023-03-03T12:54:10;24.17;;;10.13;;
15317;SDS011;7759;52.528;13.346;2023-03-03T12:56:48;22.97;;;10.67;;
15317;SDS011;7759;52.528;13.346;2023-03-03T12:59:19;26.97;;;11.07;;
15317;SDS011;7759;52.528;13.346;2023-03-03T13:01:52;26.77;;;10.50;;
15317;SDS011;7759;52.528;13.346;2023-03-03T13:07:14;25.30;;;10.70;;
15317;SDS011;7759;52.528;13.346;2023-03-03T13:09:47;24.53;;;10.67;;
15317;SDS011;7759;52.528;13.346;2023-03-03T13:12:23;18.47;;;8.57;;
15317;SDS011;7759;52.528;13.346;2023-03-03T13:15:04;14.97;;;7.30;;
15317;SDS011;7759;52.528;13.346;2023-03-03T13:17:41;16.47;;;7.83;;
15317;SDS011;7759;52.528;13.346;2023-03-03T13:20:21;17.13;;;7.73;;
15317;SDS011;7759;52.528;13.346;2023-03-03T13:28:09;15.70;;;7.30;;
15317;SDS011;7759;52.528;13.346;2023-03-03T13:30:38;20.10;;;8.80;;
15317;SDS011;7759;52.528;13.346;2023-03-03T13:38:02;17.90;;;7.60;;
15317;SDS011;7759;52.528;13.346;2023-03-03T13:40:35;20.13;;;8.80;;
15317;SDS011;7759;52.528;13.346;2023-03-03T13:43:04;10.93;;;6.07;;
15317;SDS011;7759;52.528;13.346;2023-03-03T13:45:42;11.47;;;5.50;;
15317;SDS011;7759;52.528;13.346;2023-03-03T13:50:57;10.80;;;6.43;;
15317;SDS011;7759;52.528;13.346;2023-03-03T14:01:11;14.20;;;6.23;;
15317;SDS011;7759;52.528;13.346;2023-03-03T14:06:16;11.23;;;5.60;;
15317;SDS011;7759;52.528;13.346;2023-03-03T14:08:48;8.57;;;4.93;;
15317;SDS011;7759;52.528;13.346;2023-03-03T14:11:25;10.87;;;5.73;;
15317;SDS011;7759;52.528;13.346;2023-03-03T14:14:07;10.90;;;5.93;;
15317;SDS011;7759;52.528;13.346;2023-03-03T14:19:16;9.97;;;4.70;;
15317;SDS011;7759;52.528;13.346;2023-03-03T14:21:46;17.93;;;9.47;;
15317;SDS011;7759;52.528;13.346;2023-03-03T14:24:15;10.10;;;6.40;;
15317;SDS011;7759;52.528;13.346;2023-03-03T14:26:48;7.03;;;4.50;;
15317;SDS011;7759;52.528;13.346;2023-03-03T14:31:43;10.63;;;5.40;;
15317;SDS011;7759;52.528;13.346;2023-03-03T14:36:47;16.63;;;6.93;;
15317;SDS011;7759;52.528;13.346;2023-03-03T14:41:48;12.27;;;5.53;;
15317;SDS011;7759;52.528;13.346;2023-03-03T14:44:25;14.13;;;7.63;;
15317;SDS011;7759;52.528;13.346;2023-03-03T14:49:37;18.23;;;9.23;;
15317;SDS011;7759;52.528;13.346;2023-03-03T14:54:43;11.70;;;6.40;;
15317;SDS011;7759;52.528;13.346;2023-03-03T14:59:54;14.60;;;6.80;;
15317;SDS011;7759;52.528;13.346;2023-03-03T15:02:28;15.17;;;7.60;;
15317;SDS011;7759;52.528;13.346;2023-03-03T15:05:37;16.47;;;8.17;;
15317;SDS011;7759;52.528;13.346;2023-03-03T15:07:44;16.93;;;6.97;;
15317;SDS011;7759;52.528;13.346;2023-03-03T15:10:10;13.17;;;6.63;;
15317;SDS011;7759;52.528;13.346;2023-03-03T15:12:38;15.33;;;7.20;;
15317;SDS011;7759;52.528;13.346;2023-03-03T15:17:35;17.00;;;7.60;;
15317;SDS011;7759;52.528;13.346;2023-03-03T15:22:42;13.30;;;7.37;;
15317;SDS011;7759;52.528;13.346;2023-03-03T15:25:14;17.70;;;6.73;;
15317;SDS011;7759;52.528;13.346;2023-03-03T15:27:43;19.33;;;8.07;;
15317;SDS011;7759;52.528;13.346;2023-03-03T15:30:24;18.73;;;8.60;;
15317;SDS011;7759;52.528;13.346;2023-03-03T15:32:57;10.97;;;4.90;;
15317;SDS011;7759;52.528;13.346;2023-03-03T15:38:02;11.30;;;6.07;;
15317;SDS011;7759;52.528;13.346;2023-03-03T15:43:18;13.07;;;6.57;;
15317;SDS011;7759;52.528;13.346;2023-03-03T15:48:36;14.47;;;7.10;;
15317;SDS011;7759;52.528;13.346;2023-03-03T15:59:28;12.00;;;5.20;;
15317;SDS011;7759;52.528;13.346;2023-03-03T16:04:30;12.40;;;6.50;;
15317;SDS011;7759;52.528;13.346;2023-03-03T16:07:04;11.50;;;5.57;;
15317;SDS011;7759;52.528;13.346;2023-03-03T16:14:51;10.63;;;5.33;;
15317;SDS011;7759;52.528;13.346;2023-03-03T16:19:51;18.33;;;7.53;;
15317;SDS011;7759;52.528;13.346;2023-03-03T16:24:54;16.30;;;5.67;;
15317;SDS011;7759;52.528;13.346;2023-03-03T16:30:41;10.40;;;5.93;;
15317;SDS011;7759;52.528;13.346;2023-03-03T16:33:07;12.00;;;6.03;;
15317;SDS011;7759;52.528;13.346;2023-03-03T16:35:42;9.63;;;5.03;;
15317;SDS011;7759;52.528;13.346;2023-03-03T16:38:10;10.87;;;5.47;;
15317;SDS011;7759;52.528;13.346;2023-03-03T16:43:21;9.40;;;4.87;;
15317;SDS011;7759;52.528;13.346;2023-03-03T16:45:49;11.83;;;5.57;;
15317;SDS011;7759;52.528;13.346;2023-03-03T16:48:20;11.83;;;5.10;;
15317;SDS011;7759;52.528;13.346;2023-03-03T16:51:00;11.47;;;5.50;;
15317;SDS011;7759;52.528;13.346;2023-03-03T16:55:59;12.40;;;5.73;;
15317;SDS011;7759;52.528;13.346;2023-03-03T17:06:15;10.70;;;5.17;;
15317;SDS011;7759;52.528;13.346;2023-03-03T17:11:43;12.80;;;5.77;;
15317;SDS011;7759;52.528;13.346;2023-03-03T17:14:27;14.10;;;6.67;;
15317;SDS011;7759;52.528;13.346;2023-03-03T17:17:00;11.90;;;5.63;;
15317;SDS011;7759;52.528;13.346;2023-03-03T17:22:28;12.17;;;6.73;;
15317;SDS011;7759;52.528;13.346;2023-03-03T17:25:12;12.33;;;6.30;;
15317;SDS011;7759;52.528;13.346;2023-03-03T17:27:57;12.60;;;5.30;;
15317;SDS011;7759;52.528;13.346;2023-03-03T17:30:26;13.20;;;5.60;;
15317;SDS011;7759;52.528;13.346;2023-03-03T17:33:02;11.67;;;5.77;;
15317;SDS011;7759;52.528;13.346;2023-03-03T17:41:03;16.43;;;7.10;;
15317;SDS011;7759;52.528;13.346;2023-03-03T17:46:00;16.87;;;7.40;;
15317;SDS011;7759;52.528;13.346;2023-03-03T17:48:37;11.83;;;6.10;;
15317;SDS011;7759;52.528;13.346;2023-03-03T17:51:10;13.87;;;6.50;;
15317;SDS011;7759;52.528;13.346;2023-03-03T17:53:40;10.10;;;4.77;;
15317;SDS011;7759;52.528;13.346;2023-03-03T17:56:13;15.23;;;7.23;;
15317;SDS011;7759;52.528;13.346;2023-03-03T18:01:33;13.93;;;6.83;;
15317;SDS011;7759;52.528;13.346;2023-03-03T18:07:32;7.23;;;4.13;;
15317;SDS011;7759;52.528;13.346;2023-03-03T18:09:42;14.10;;;7.53;;